createdAt,value
2022-09-09T00:03:26.878Z,15.6
2022-09-09T00:09:05.602Z,15.5
2022-09-09T00:14:41.783Z,15.6
2022-09-09T04:57:51.748Z,15.3
2022-09-09T05:03:30.460Z,15.9
2022-09-09T05:08:51.938Z,16.1
2022-09-09T05:14:32.093Z,16.3
2022-09-09T05:20:13.536Z,16.4
2022-09-09T05:25:53.531Z,16.7
2022-09-09T05:36:26.013Z,17.3
2022-09-09T05:42:07.208Z,17.5
2022-09-09T05:47:45.377Z,17.6
2022-09-09T05:53:23.802Z,17.8
2022-09-09T06:04:23.681Z,18.9
2022-09-09T06:10:06.231Z,18.8
2022-09-09T06:15:43.730Z,18.9
2022-09-09T06:21:21.082Z,19.8
2022-09-09T06:26:59.241Z,19.4
2022-09-09T06:32:37.529Z,20.2
2022-09-09T06:38:15.135Z,20.8
2022-09-09T06:43:53.277Z,21.2
2022-09-09T06:49:30.162Z,21.5
2022-09-09T06:55:11.568Z,21.9
2022-09-09T07:01:09.587Z,22.1
2022-09-09T07:06:00.830Z,22.1
2022-09-09T07:11:30.646Z,22.4
2022-09-09T07:17:12.934Z,22.5
2022-09-09T07:22:49.896Z,22.6
2022-09-09T07:28:28.423Z,23.6
2022-09-09T07:34:14.438Z,23.9
2022-09-09T07:39:56.901Z,22.7
2022-09-09T07:45:35.376Z,24.8
2022-09-09T07:51:01.309Z,25.6
2022-09-09T07:56:40.374Z,25.9
2022-09-09T08:02:21.077Z,24.5
2022-09-09T08:07:43.854Z,25.9
2022-09-09T08:13:50.876Z,25.9
2022-09-09T08:19:30.815Z,26.4
2022-09-09T08:24:53.190Z,26.4
2022-09-09T08:30:30.741Z,26.5
2022-09-09T08:36:15.490Z,26.8
2022-09-09T08:41:57.160Z,26.6
2022-09-09T08:47:40.647Z,25.5
2022-09-09T08:53:02.066Z,26.3
2022-09-09T09:04:01.590Z,25.8
2022-09-09T13:33:03.664Z,26.5
2022-09-09T13:38:44.773Z,26.6
2022-09-09T13:44:22.551Z,26.1
2022-09-09T13:50:03.050Z,26.6
2022-09-09T13:55:41.450Z,26.7
2022-09-09T14:01:33.136Z,27.2
2022-09-09T14:07:10.726Z,27.3
2022-09-09T14:12:49.239Z,27.2
2022-09-09T14:18:27.186Z,27.5
2022-09-09T14:24:10.295Z,27.2
2022-09-09T14:30:02.720Z,26.6
2022-09-09T14:41:02.519Z,28.1
2022-09-09T14:46:40.897Z,27.1
2022-09-09T14:52:04.512Z,27.4
2022-09-09T14:57:26.164Z,27.1
2022-09-09T15:03:05.654Z,27.3
2022-09-09T15:08:43.290Z,26.8
2022-09-09T15:14:22.370Z,26.9
2022-09-09T15:20:02.482Z,27.6
2022-09-09T15:25:44.408Z,28.1
2022-09-09T15:31:23.043Z,27.3
2022-09-09T15:37:01.589Z,25.9
2022-09-09T15:42:39.273Z,25.8
2022-09-09T15:48:17.399Z,25.6
2022-09-09T15:54:23.110Z,25.4
2022-09-09T16:00:00.357Z,25.3
2022-09-09T16:05:44.319Z,25.3
2022-09-09T16:11:28.012Z,25
2022-09-09T16:17:04.581Z,24.8
2022-09-09T16:22:41.898Z,24.1
2022-09-09T16:28:23.542Z,23.9
2022-09-09T16:34:06.229Z,23.4
2022-09-09T16:39:43.084Z,23.1
2022-09-09T16:45:21.759Z,23
2022-09-09T16:50:59.517Z,23
2022-09-09T16:56:37.119Z,22.9
2022-09-09T17:02:16.090Z,22.9
2022-09-09T17:07:59.565Z,22.7
2022-09-09T17:13:21.412Z,22.5
2022-09-09T17:19:17.464Z,22.5
2022-09-09T17:25:25.180Z,22.5
2022-09-09T17:30:46.518Z,22.6
2022-09-09T17:36:09.667Z,22.4
2022-09-09T17:41:51.551Z,22.3
2022-09-09T17:47:13.817Z,22.3
2022-09-09T17:52:36.827Z,22.2
2022-09-09T17:58:14.100Z,22.2
2022-09-09T18:03:52.976Z,22.1
2022-09-09T18:09:31.407Z,21.8
2022-09-09T18:15:07.733Z,21.7
2022-09-09T18:20:44.679Z,21.7
2022-09-09T18:26:23.099Z,21.8
2022-09-09T18:32:03.710Z,21.5
2022-09-09T18:37:44.512Z,21.3
2022-09-09T18:43:23.181Z,21.3
2022-09-09T18:49:00.145Z,21.3
2022-09-09T18:54:22.538Z,21.3
2022-09-09T19:00:00.522Z,21.2
2022-09-09T19:05:38.591Z,21.3
2022-09-09T19:11:06.247Z,21.3
2022-09-09T19:16:45.855Z,21.2
2022-09-09T19:27:44.151Z,21
2022-09-09T19:33:58.783Z,21
2022-09-09T19:39:21.500Z,21.2
2022-09-09T19:44:43.680Z,21.3
2022-09-09T19:50:06.720Z,21.3
2022-09-09T19:55:45.547Z,21.4
2022-09-09T20:01:22.904Z,21.7
2022-09-09T20:07:24.585Z,21.7
2022-09-09T20:13:01.676Z,21.5
2022-09-09T20:18:39.215Z,21.4
2022-09-09T20:24:22.119Z,21.3
2022-09-09T20:29:49.000Z,20.9
2022-09-09T20:35:26.415Z,20.8
2022-09-09T20:41:06.531Z,20.7
2022-09-09T20:46:43.707Z,20.8
2022-09-09T20:52:26.828Z,21
2022-09-09T20:58:05.189Z,20.8
2022-09-09T21:03:42.470Z,20.5
2022-09-09T21:09:23.180Z,20.2
2022-09-09T21:15:01.526Z,20
2022-09-09T21:20:22.959Z,19.8
2022-09-09T21:26:00.445Z,19.5
2022-09-09T21:31:47.969Z,19.6
2022-09-09T21:37:30.198Z,19.4
2022-09-09T21:43:07.633Z,19.2
2022-09-09T21:48:45.413Z,19.1
2022-09-09T21:54:12.050Z,18.9
2022-09-09T21:59:49.181Z,19.1
2022-09-09T22:05:12.852Z,19.1
2022-09-09T22:10:50.805Z,19
2022-09-09T22:16:11.812Z,18.9
2022-09-09T22:21:49.861Z,18.8
2022-09-09T22:27:27.313Z,18.8
2022-09-09T22:32:48.959Z,18.8
2022-09-09T22:38:11.598Z,18.8
2022-09-09T22:48:39.090Z,18.8
2022-09-09T22:54:06.791Z,18.6
2022-09-09T22:59:44.867Z,18.6
2022-09-09T23:05:22.392Z,18.8
2022-09-09T23:10:44.913Z,18.8
2022-09-09T23:16:22.885Z,18.8
2022-09-09T23:21:43.608Z,18.8
2022-09-09T23:27:21.691Z,18.8
2022-09-09T23:32:59.515Z,18.8
2022-09-09T23:38:05.890Z,18.9
2022-09-09T23:43:13.299Z,18.9
2022-09-09T23:48:19.554Z,18.8
2022-09-09T23:53:26.218Z,19.1
2022-09-09T23:58:48.608Z,18.8
